createdAt,value
2023-04-22T00:00:17.081Z,91.43
2023-04-22T00:02:45.793Z,91.92
2023-04-22T00:05:17.022Z,90.39
2023-04-22T00:07:47.405Z,89.20
2023-04-22T00:10:15.561Z,89.26
2023-04-22T00:12:43.439Z,88.94
2023-04-22T00:15:13.469Z,88.85
2023-04-22T00:17:42.774Z,87.96
2023-04-22T00:20:12.656Z,87.90
2023-04-22T00:22:40.642Z,88.69
2023-04-22T00:25:09.564Z,88.13
2023-04-22T00:27:37.778Z,88.63
2023-04-22T00:30:06.655Z,89.38
2023-04-22T00:32:36.027Z,88.98
2023-04-22T00:35:04.038Z,89.59
2023-04-22T00:37:31.968Z,89.60
2023-04-22T00:39:59.825Z,89.26
2023-04-22T00:42:28.342Z,89.89
2023-04-22T00:44:56.812Z,90.43
2023-04-22T00:47:26.981Z,90.40
2023-04-22T00:49:56.395Z,90.66
2023-04-22T00:52:24.227Z,90.60
2023-04-22T00:54:53.168Z,90.71
2023-04-22T00:57:21.637Z,89.78
2023-04-22T00:59:50.542Z,89.55
2023-04-22T01:02:19.286Z,90.23
2023-04-22T01:04:48.098Z,91.01
2023-04-22T01:07:17.428Z,90.79
2023-04-22T01:09:45.278Z,91.80
2023-04-22T01:12:13.165Z,91.26
2023-04-22T01:14:41.323Z,90.93
2023-04-22T01:17:10.674Z,91.75
2023-04-22T01:19:38.870Z,92.43
2023-04-22T01:22:08.930Z,91.95
2023-04-22T01:24:38.752Z,91.68
2023-04-22T01:27:06.612Z,91.19
2023-04-22T01:29:34.712Z,91.15
2023-04-22T01:32:04.053Z,90.70
2023-04-22T01:34:32.439Z,91.17
2023-04-22T01:37:00.397Z,92.22
2023-04-22T01:39:28.712Z,92.63
2023-04-22T01:41:58.576Z,92.98
2023-04-22T01:44:26.930Z,92.91
2023-04-22T01:46:55.252Z,93.64
2023-04-22T01:49:23.252Z,94.25
2023-04-22T01:51:51.078Z,95.54
2023-04-22T01:54:19.066Z,96.70
2023-04-22T01:56:51.946Z,98.59
2023-04-22T01:59:21.513Z,97.66
2023-04-22T02:01:49.615Z,98.20
2023-04-22T02:04:17.683Z,97.58
2023-04-22T02:06:45.596Z,96.79
2023-04-22T02:09:13.504Z,97.65
2023-04-22T02:11:41.402Z,98.83
2023-04-22T02:14:09.391Z,98.28
2023-04-22T02:16:38.671Z,97.16
2023-04-22T02:19:06.596Z,96.87
2023-04-22T02:21:34.854Z,97.14
2023-04-22T02:24:02.969Z,97.58
2023-04-22T02:26:30.877Z,96.66
2023-04-22T02:29:01.594Z,96.83
2023-04-22T02:31:29.618Z,96.91
2023-04-22T02:33:58.971Z,96.78
2023-04-22T02:36:27.781Z,96.23
2023-04-22T02:38:55.738Z,95.96
2023-04-22T02:41:23.672Z,95.35
2023-04-22T02:43:51.562Z,95.42
2023-04-22T02:46:19.600Z,94.97
2023-04-22T02:48:48.750Z,95.66
2023-04-22T02:51:18.014Z,96.02
2023-04-22T02:53:45.938Z,96.31
2023-04-22T02:56:13.837Z,96.76
2023-04-22T02:58:41.827Z,96.42
2023-04-22T03:01:09.765Z,95.84
2023-04-22T03:03:37.963Z,96.03
2023-04-22T03:06:06.205Z,96.32
2023-04-22T03:08:35.559Z,97.48
2023-04-22T03:11:03.426Z,98.33
2023-04-22T03:13:31.241Z,99.10
2023-04-22T03:15:59.298Z,98.76
2023-04-22T03:18:27.297Z,99.78
2023-04-22T03:20:55.285Z,99.87
2023-04-22T03:23:23.237Z,99.50
2023-04-22T03:25:52.477Z,99.69
2023-04-22T03:28:20.377Z,98.85
2023-04-22T03:30:48.679Z,97.67
2023-04-22T03:33:16.750Z,98.08
2023-04-22T03:35:44.838Z,97.58
2023-04-22T03:38:12.761Z,98.10
2023-04-22T03:40:41.118Z,98.02
2023-04-22T03:43:10.774Z,99.21
2023-04-22T03:45:38.793Z,99.87
2023-04-22T03:48:07.117Z,100.00
2023-04-22T03:50:35.093Z,100.00
2023-04-22T03:53:03.042Z,99.95
2023-04-22T03:55:30.854Z,99.81
2023-04-22T03:57:58.915Z,99.76
2023-04-22T04:00:30.588Z,99.92
2023-04-22T04:02:58.647Z,99.50
2023-04-22T04:05:27.080Z,98.86
2023-04-22T04:07:55.373Z,99.03
2023-04-22T04:10:23.400Z,99.60
2023-04-22T04:12:51.372Z,98.88
2023-04-22T04:15:21.366Z,95.39
2023-04-22T04:17:50.806Z,92.94
2023-04-22T04:20:18.826Z,94.27
2023-04-22T04:22:46.842Z,96.94
2023-04-22T04:25:14.759Z,98.56
2023-04-22T04:27:42.702Z,98.57
2023-04-22T04:30:11.447Z,99.43
2023-04-22T04:32:39.997Z,100.00
2023-04-22T04:35:12.990Z,99.45
2023-04-22T04:37:40.914Z,99.41
2023-04-22T04:40:12.262Z,94.16
2023-04-22T04:42:40.219Z,94.80
2023-04-22T04:45:10.344Z,94.85
2023-04-22T04:47:38.203Z,99.24
2023-04-22T04:50:07.027Z,95.09
2023-04-22T04:52:36.341Z,94.57
2023-04-22T04:55:04.351Z,96.24
2023-04-22T04:57:32.273Z,98.71
2023-04-22T05:00:00.587Z,99.31
2023-04-22T05:02:28.630Z,100.00
2023-04-22T05:04:56.921Z,100.00
2023-04-22T05:07:24.952Z,100.00
2023-04-22T05:09:54.225Z,100.00
2023-04-22T05:12:22.119Z,100.00
2023-04-22T05:14:50.101Z,100.00
2023-04-22T05:17:18.060Z,100.00
2023-04-22T05:19:46.110Z,100.00
2023-04-22T05:22:14.039Z,100.00
2023-04-22T05:24:41.970Z,100.00
2023-04-22T05:27:11.432Z,100.00
2023-04-22T05:29:39.526Z,100.00
2023-04-22T05:32:08.537Z,97.67
2023-04-22T05:34:36.699Z,91.60
2023-04-22T05:37:05.550Z,89.24
2023-04-22T05:39:33.650Z,86.48
2023-04-22T05:42:01.941Z,86.94
2023-04-22T05:44:31.133Z,86.85
2023-04-22T05:46:58.992Z,85.33
2023-04-22T05:49:26.835Z,84.52
2023-04-22T05:51:54.787Z,83.87
2023-04-22T05:54:22.659Z,83.47
2023-04-22T05:56:50.720Z,82.95
2023-04-22T05:59:19.687Z,82.19
2023-04-22T06:01:51.166Z,81.53
2023-04-22T06:04:20.228Z,82.03
2023-04-22T06:06:48.540Z,82.10
2023-04-22T06:09:16.412Z,80.98
2023-04-22T06:11:44.257Z,79.85
2023-04-22T06:14:13.116Z,81.50
2023-04-22T06:16:41.199Z,80.28
2023-04-22T06:19:10.508Z,79.60
2023-04-22T06:21:40.498Z,78.94
2023-04-22T06:24:10.271Z,78.89
2023-04-22T06:26:38.316Z,79.76
2023-04-22T06:29:06.666Z,79.24
2023-04-22T06:31:34.814Z,78.93
2023-04-22T06:34:02.776Z,79.06
2023-04-22T06:36:33.105Z,78.47
2023-04-22T06:39:01.143Z,78.31
2023-04-22T06:41:29.065Z,78.06
2023-04-22T06:43:56.948Z,78.54
2023-04-22T06:46:24.945Z,78.57
2023-04-22T06:48:52.787Z,77.91
2023-04-22T06:51:20.836Z,78.04
2023-04-22T06:53:50.175Z,77.85
2023-04-22T06:56:18.137Z,77.61
2023-04-22T06:58:46.032Z,78.65
2023-04-22T07:01:13.920Z,78.96
2023-04-22T07:03:41.909Z,78.43
2023-04-22T07:06:10.774Z,78.20
2023-04-22T07:08:38.789Z,79.16
2023-04-22T07:11:08.112Z,78.11
2023-04-22T07:13:36.066Z,79.53
2023-04-22T07:16:04.106Z,78.33
2023-04-22T07:18:32.170Z,79.33
2023-04-22T07:21:00.118Z,79.47
2023-04-22T07:23:28.152Z,79.54
2023-04-22T07:25:56.137Z,79.44
2023-04-22T07:28:25.538Z,77.62
2023-04-22T07:30:55.722Z,78.47
2023-04-22T07:33:23.659Z,77.18
2023-04-22T07:35:51.515Z,76.70
2023-04-22T07:38:19.488Z,76.35
2023-04-22T07:40:47.440Z,75.02
2023-04-22T07:43:15.296Z,76.30
2023-04-22T07:45:44.890Z,75.75
2023-04-22T07:48:12.808Z,75.90
2023-04-22T07:50:40.997Z,74.63
2023-04-22T07:53:10.784Z,73.77
2023-04-22T07:55:38.777Z,73.51
2023-04-22T07:58:06.880Z,74.15
2023-04-22T08:00:35.400Z,74.56
2023-04-22T08:03:05.914Z,72.03
2023-04-22T08:05:35.996Z,73.06
2023-04-22T08:08:03.933Z,72.76
2023-04-22T08:10:31.875Z,73.36
2023-04-22T08:12:59.831Z,71.36
2023-04-22T08:15:27.775Z,72.33
2023-04-22T08:17:55.740Z,70.88
2023-04-22T08:20:25.684Z,70.49
2023-04-22T08:22:58.197Z,70.61
2023-04-22T08:25:26.529Z,69.32
2023-04-22T08:27:54.575Z,70.45
2023-04-22T08:30:22.639Z,70.02
2023-04-22T08:32:53.091Z,69.28
2023-04-22T08:35:20.843Z,68.13
2023-04-22T08:37:50.127Z,69.73
2023-04-22T08:40:17.958Z,68.79
2023-04-22T08:42:46.124Z,68.22
2023-04-22T08:45:15.042Z,68.24
2023-04-22T08:47:44.387Z,68.83
2023-04-22T08:50:12.852Z,67.76
2023-04-22T08:52:41.055Z,67.07
2023-04-22T08:55:10.879Z,68.19
2023-04-22T08:57:40.371Z,66.81
2023-04-22T09:00:10.055Z,66.94
2023-04-22T09:02:39.494Z,65.88
2023-04-22T09:05:09.651Z,64.37
2023-04-22T09:07:38.322Z,64.83
2023-04-22T09:10:08.391Z,63.95
2023-04-22T09:12:38.598Z,64.83
2023-04-22T09:15:08.804Z,64.37
2023-04-22T09:17:38.418Z,63.64
2023-04-22T09:20:08.841Z,64.09
2023-04-22T09:22:39.967Z,60.65
2023-04-22T09:25:16.202Z,63.61
2023-04-22T09:27:49.751Z,62.70
2023-04-22T09:30:20.013Z,62.92
2023-04-22T09:32:55.797Z,62.69
2023-04-22T09:35:31.137Z,61.12
2023-04-22T09:38:00.484Z,62.13
2023-04-22T09:40:29.742Z,62.27
2023-04-22T09:43:03.541Z,62.29
2023-04-22T09:45:33.417Z,61.96
2023-04-22T09:48:03.318Z,60.58
2023-04-22T09:50:31.331Z,60.46
2023-04-22T09:53:01.242Z,60.79
2023-04-22T09:55:31.150Z,59.41
2023-04-22T09:58:07.348Z,59.11
2023-04-22T10:00:37.833Z,58.28
2023-04-22T10:03:08.165Z,57.42
2023-04-22T10:05:38.668Z,59.37
2023-04-22T10:08:07.759Z,59.18
2023-04-22T10:10:36.472Z,58.78
2023-04-22T10:13:07.102Z,57.29
2023-04-22T10:15:37.718Z,57.58
2023-04-22T10:18:09.706Z,57.10
2023-04-22T10:20:39.085Z,57.65
2023-04-22T10:23:08.152Z,57.16
2023-04-22T10:25:36.005Z,57.02
2023-04-22T10:28:06.708Z,57.37
2023-04-22T10:30:36.723Z,58.21
2023-04-22T10:33:37.300Z,54.92
2023-04-22T10:36:12.400Z,56.53
2023-04-22T10:38:42.089Z,57.60
2023-04-22T10:41:15.423Z,55.70
2023-04-22T10:43:46.291Z,56.71
2023-04-22T10:46:52.152Z,54.90
2023-04-22T10:49:21.810Z,56.48
2023-04-22T10:51:51.110Z,56.11
2023-04-22T10:54:56.550Z,54.83
2023-04-22T10:57:31.192Z,55.50
2023-04-22T11:00:01.294Z,55.61
2023-04-22T11:02:29.396Z,54.57
2023-04-22T11:05:23.436Z,54.47
2023-04-22T11:07:55.808Z,55.13
2023-04-22T11:10:33.963Z,52.76
2023-04-22T11:13:02.439Z,53.22
2023-04-22T11:15:32.509Z,53.85
2023-04-22T11:18:00.633Z,54.78
2023-04-22T11:20:29.780Z,53.54
2023-04-22T11:22:58.920Z,53.82
2023-04-22T11:25:27.636Z,53.47
2023-04-22T11:27:56.249Z,53.83
2023-04-22T11:30:26.397Z,53.98
2023-04-22T11:32:58.848Z,53.78
2023-04-22T11:35:29.040Z,53.08
2023-04-22T11:37:58.738Z,53.63
2023-04-22T11:40:32.117Z,53.43
2023-04-22T11:43:03.463Z,53.52
2023-04-22T11:45:33.431Z,53.49
2023-04-22T11:48:03.974Z,53.21
2023-04-22T11:50:32.393Z,50.51
2023-04-22T11:53:02.612Z,52.44
2023-04-22T11:55:33.087Z,52.72
2023-04-22T11:58:01.675Z,50.36
2023-04-22T12:00:33.108Z,52.79
2023-04-22T12:03:03.760Z,52.74
2023-04-22T12:05:40.190Z,50.07
2023-04-22T12:08:09.916Z,51.57
2023-04-22T12:10:42.735Z,50.79
2023-04-22T12:13:11.041Z,51.07
2023-04-22T12:15:44.040Z,49.17
2023-04-22T12:18:13.688Z,49.91
2023-04-22T12:20:42.605Z,49.76
2023-04-22T12:23:15.437Z,49.63
2023-04-22T12:25:44.395Z,50.00
2023-04-22T12:28:13.128Z,49.96
2023-04-22T12:30:41.120Z,49.86
2023-04-22T12:33:09.483Z,49.71
2023-04-22T12:35:39.034Z,49.78
2023-04-22T12:38:06.894Z,49.71
2023-04-22T12:40:34.779Z,48.47
2023-04-22T12:43:06.173Z,48.55
2023-04-22T12:45:34.157Z,47.37
2023-04-22T12:48:02.180Z,47.31
2023-04-22T12:50:30.273Z,48.22
2023-04-22T12:52:59.567Z,48.33
2023-04-22T12:55:28.246Z,47.70
2023-04-22T12:57:56.791Z,48.49
2023-04-22T13:00:25.506Z,47.98
2023-04-22T13:02:53.559Z,47.36
2023-04-22T13:05:21.755Z,47.91
2023-04-22T13:07:56.429Z,47.82
2023-04-22T13:10:35.821Z,46.76
2023-04-22T13:13:16.666Z,47.08
2023-04-22T13:15:46.053Z,47.48
2023-04-22T13:18:14.016Z,46.95
2023-04-22T13:20:42.716Z,46.75
2023-04-22T13:23:10.886Z,47.12
2023-04-22T13:25:40.349Z,47.04
2023-04-22T13:28:08.255Z,47.34
2023-04-22T13:30:36.124Z,46.44
2023-04-22T13:33:04.094Z,47.00
2023-04-22T13:35:32.743Z,47.15
2023-04-22T13:38:03.173Z,46.65
2023-04-22T13:40:31.012Z,44.64
2023-04-22T13:43:00.382Z,46.67
2023-04-22T13:45:28.506Z,47.21
2023-04-22T13:51:14.086Z,47.78
2023-04-22T13:53:42.041Z,47.36
2023-04-22T13:56:09.997Z,47.21
2023-04-22T13:58:37.884Z,47.34
2023-04-22T14:01:09.318Z,46.52
2023-04-22T14:03:38.004Z,47.10
2023-04-22T14:06:06.285Z,47.00
2023-04-22T14:08:35.669Z,47.39
2023-04-22T14:11:04.050Z,47.25
2023-04-22T14:13:32.292Z,46.70
2023-04-22T14:16:00.616Z,47.72
2023-04-22T14:18:28.897Z,46.81
2023-04-22T14:20:57.100Z,46.71
2023-04-22T14:23:24.966Z,46.79
2023-04-22T14:25:54.389Z,46.99
2023-04-22T14:28:22.429Z,46.86
2023-04-22T14:30:50.424Z,47.68
2023-04-22T14:33:18.369Z,47.12
2023-04-22T14:35:46.337Z,46.62
2023-04-22T14:38:14.479Z,47.11
2023-04-22T14:40:42.447Z,47.15
2023-04-22T14:43:11.696Z,47.07
2023-04-22T14:45:40.809Z,47.05
2023-04-22T14:48:08.823Z,46.92
2023-04-22T14:50:37.154Z,47.85
2023-04-22T14:53:05.012Z,47.14
2023-04-22T14:55:35.394Z,47.00
2023-04-22T14:58:03.382Z,46.88
2023-04-22T15:00:32.689Z,47.51
2023-04-22T15:03:00.895Z,47.80
2023-04-22T15:05:28.881Z,47.22
2023-04-22T15:07:57.873Z,47.44
2023-04-22T15:10:26.334Z,47.89
2023-04-22T15:12:55.001Z,47.35
2023-04-22T15:15:22.885Z,48.20
2023-04-22T15:17:52.591Z,48.10
2023-04-22T15:20:20.584Z,48.05
2023-04-22T15:22:52.076Z,47.10
2023-04-22T15:25:19.981Z,48.75
2023-04-22T15:27:48.713Z,49.19
2023-04-22T15:30:16.778Z,48.97
2023-04-22T15:32:44.679Z,47.93
2023-04-22T15:35:14.200Z,47.60
2023-04-22T15:37:42.071Z,48.63
2023-04-22T15:40:10.521Z,48.70
2023-04-22T15:42:38.441Z,47.43
2023-04-22T15:45:07.482Z,47.89
2023-04-22T15:47:36.755Z,48.31
2023-04-22T15:50:08.938Z,48.61
2023-04-22T15:52:39.757Z,47.98
2023-04-22T15:55:09.336Z,49.12
2023-04-22T15:57:37.457Z,49.16
2023-04-22T16:00:11.995Z,48.42
2023-04-22T16:02:42.389Z,48.87
2023-04-22T16:05:11.381Z,48.87
2023-04-22T16:07:41.012Z,48.60
2023-04-22T16:10:10.378Z,49.06
2023-04-22T16:12:38.343Z,49.09
2023-04-22T16:15:07.949Z,49.07
2023-04-22T16:17:36.141Z,49.38
2023-04-22T16:20:05.893Z,49.22
2023-04-22T16:22:33.915Z,49.23
2023-04-22T16:25:03.199Z,48.75
2023-04-22T16:27:31.834Z,48.59
2023-04-22T16:29:59.930Z,49.25
2023-04-22T16:32:27.937Z,49.57
2023-04-22T16:34:55.942Z,49.49
2023-04-22T16:37:24.150Z,48.77
2023-04-22T16:39:52.231Z,49.75
2023-04-22T16:42:21.580Z,49.07
2023-04-22T16:44:49.579Z,49.14
2023-04-22T16:47:17.468Z,49.55
2023-04-22T16:49:45.427Z,50.26
2023-04-22T16:52:13.361Z,49.68
2023-04-22T16:54:42.514Z,49.57
2023-04-22T16:57:11.525Z,49.69
2023-04-22T16:59:41.214Z,50.01
2023-04-22T17:02:10.193Z,49.62
2023-04-22T17:04:38.612Z,49.44
2023-04-22T17:07:06.656Z,49.91
2023-04-22T17:09:34.568Z,50.24
2023-04-22T17:12:02.664Z,50.24
2023-04-22T17:14:31.076Z,50.34
2023-04-22T17:17:00.441Z,49.90
2023-04-22T17:19:28.432Z,50.86
2023-04-22T17:21:56.609Z,51.06
2023-04-22T17:24:24.984Z,51.54
2023-04-22T17:26:52.973Z,50.93
2023-04-22T17:29:21.799Z,51.36
2023-04-22T17:31:50.012Z,51.78
2023-04-22T17:34:19.472Z,51.62
2023-04-22T17:36:47.410Z,52.11
2023-04-22T17:39:15.382Z,52.15
2023-04-22T17:41:43.270Z,52.72
2023-04-22T17:44:11.350Z,52.73
2023-04-22T17:46:39.282Z,52.88
2023-04-22T17:49:07.258Z,52.82
2023-04-22T17:51:36.656Z,53.42
2023-04-22T17:54:05.447Z,54.03
2023-04-22T17:56:33.417Z,52.88
2023-04-22T17:59:01.361Z,54.06
2023-04-22T18:01:30.459Z,54.25
2023-04-22T18:03:59.410Z,54.71
2023-04-22T18:06:28.995Z,53.85
2023-04-22T18:08:58.330Z,54.17
2023-04-22T18:11:27.921Z,55.28
2023-04-22T18:13:56.014Z,55.35
2023-04-22T18:16:23.966Z,55.45
2023-04-22T18:18:51.889Z,55.38
2023-04-22T18:21:19.789Z,54.65
2023-04-22T18:23:47.741Z,55.82
2023-04-22T18:26:17.139Z,55.07
2023-04-22T18:28:45.085Z,55.38
2023-04-22T18:31:13.161Z,55.58
2023-04-22T18:33:41.190Z,55.67
2023-04-22T18:36:09.637Z,56.61
2023-04-22T18:38:38.695Z,56.92
2023-04-22T18:41:06.864Z,56.11
2023-04-22T18:43:36.567Z,57.05
2023-04-22T18:46:04.521Z,57.41
2023-04-22T18:48:32.465Z,57.81
2023-04-22T18:51:00.614Z,57.46
2023-04-22T18:53:28.574Z,57.06
2023-04-22T18:55:56.564Z,57.68
2023-04-22T18:58:24.462Z,57.78
2023-04-22T19:00:53.968Z,57.50
2023-04-22T19:03:22.223Z,58.00
2023-04-22T19:05:50.195Z,58.25
2023-04-22T19:08:18.065Z,57.80
2023-04-22T19:10:45.997Z,58.50
2023-04-22T19:13:28.691Z,58.83
2023-04-22T19:15:58.946Z,59.07
2023-04-22T19:18:27.223Z,58.53
2023-04-22T19:20:57.729Z,58.59
2023-04-22T19:23:25.468Z,61.05
2023-04-22T19:25:53.336Z,59.46
2023-04-22T19:28:21.247Z,59.43
2023-04-22T19:30:49.243Z,59.75
2023-04-22T19:33:18.641Z,59.78
2023-04-22T19:35:46.754Z,60.00
2023-04-22T19:38:18.975Z,60.26
2023-04-22T19:40:47.424Z,60.38
2023-04-22T19:43:17.139Z,60.94
2023-04-22T19:45:45.060Z,60.20
2023-04-22T19:48:13.473Z,60.89
2023-04-22T19:50:44.957Z,60.82
2023-04-22T19:53:13.833Z,60.86
2023-04-22T19:55:44.042Z,61.00
2023-04-22T19:58:12.335Z,61.50
2023-04-22T20:00:40.524Z,61.83
2023-04-22T20:03:10.077Z,61.66
2023-04-22T20:05:38.676Z,62.02
2023-04-22T20:08:09.380Z,61.86
2023-04-22T20:10:37.778Z,61.85
2023-04-22T20:13:06.209Z,61.84
2023-04-22T20:15:34.287Z,62.54
2023-04-22T20:18:02.505Z,62.44
2023-04-22T20:20:30.924Z,62.69
2023-04-22T20:23:04.138Z,63.43
2023-04-22T20:25:35.072Z,63.03
2023-04-22T20:28:03.820Z,62.83
2023-04-22T20:30:32.023Z,64.28
2023-04-22T20:33:00.259Z,63.88
2023-04-22T20:35:28.779Z,64.24
2023-04-22T20:38:00.288Z,64.31
2023-04-22T20:40:40.412Z,63.89
2023-04-22T20:43:13.005Z,64.48
2023-04-22T20:45:41.003Z,65.21
2023-04-22T20:48:09.286Z,64.73
2023-04-22T20:50:40.550Z,64.11
2023-04-22T20:53:08.539Z,65.23
2023-04-22T20:55:37.285Z,65.88
2023-04-22T20:58:05.488Z,65.24
2023-04-22T21:00:35.423Z,66.18
2023-04-22T21:03:05.479Z,65.39
2023-04-22T21:05:45.944Z,66.41
2023-04-22T21:08:22.801Z,66.13
2023-04-22T21:10:52.337Z,66.62
2023-04-22T21:13:21.196Z,65.59
2023-04-22T21:15:57.272Z,66.96
2023-04-22T21:18:27.029Z,66.98
2023-04-22T21:20:57.415Z,67.23
2023-04-22T21:23:25.650Z,68.46
2023-04-22T21:25:56.174Z,68.24
2023-04-22T21:28:24.776Z,67.40
2023-04-22T21:30:54.590Z,68.08
2023-04-22T21:33:23.783Z,68.44
2023-04-22T21:35:51.988Z,69.10
2023-04-22T21:38:20.094Z,68.63
2023-04-22T21:40:48.649Z,68.94
2023-04-22T21:43:16.614Z,68.57
2023-04-22T21:45:44.484Z,68.42
2023-04-22T21:48:14.010Z,67.89
2023-04-22T21:50:41.919Z,69.06
2023-04-22T21:53:09.891Z,68.38
2023-04-22T21:55:37.895Z,68.05
2023-04-22T21:58:05.785Z,68.79
2023-04-22T22:00:33.696Z,68.08
2023-04-22T22:03:01.958Z,69.76
2023-04-22T22:05:31.837Z,71.41
2023-04-22T22:07:59.790Z,70.11
2023-04-22T22:10:28.118Z,71.42
2023-04-22T22:12:56.117Z,71.55
2023-04-22T22:15:24.277Z,70.77
2023-04-22T22:17:52.309Z,71.31
2023-04-22T22:20:22.619Z,72.55
2023-04-22T22:22:51.986Z,72.10
2023-04-22T22:25:19.820Z,73.26
2023-04-22T22:27:49.390Z,73.24
2023-04-22T22:30:18.629Z,73.40
2023-04-22T22:32:46.720Z,73.54
2023-04-22T22:35:15.159Z,73.23
2023-04-22T22:37:43.032Z,74.09
2023-04-22T22:40:13.588Z,73.44
2023-04-22T22:42:41.559Z,74.69
2023-04-22T22:45:10.607Z,73.72
2023-04-22T22:47:38.623Z,74.24
2023-04-22T22:50:08.282Z,75.88
2023-04-22T22:52:36.371Z,76.97
2023-04-22T22:55:04.479Z,76.38
2023-04-22T22:57:33.767Z,76.85
2023-04-22T23:00:01.581Z,77.11
2023-04-22T23:02:29.702Z,77.14
2023-04-22T23:04:58.306Z,78.35
2023-04-22T23:07:26.381Z,78.17
2023-04-22T23:09:54.328Z,78.18
2023-04-22T23:12:22.283Z,78.21
2023-04-22T23:14:51.561Z,78.13
2023-04-22T23:17:20.693Z,77.33
2023-04-22T23:19:52.611Z,77.80
2023-04-22T23:22:21.027Z,77.27
2023-04-22T23:24:49.337Z,77.99
2023-04-22T23:27:18.020Z,77.42
2023-04-22T23:29:46.554Z,77.65
2023-04-22T23:32:16.751Z,77.72
2023-04-22T23:34:46.965Z,77.50
2023-04-22T23:37:16.239Z,78.62
2023-04-22T23:39:44.504Z,78.16
2023-04-22T23:42:12.373Z,78.06
2023-04-22T23:44:40.804Z,77.69
2023-04-22T23:47:08.956Z,78.05
2023-04-22T23:49:38.429Z,77.96
2023-04-22T23:52:09.763Z,78.36
2023-04-22T23:54:40.389Z,78.11
2023-04-22T23:57:09.260Z,78.91
2023-04-22T23:59:37.704Z,79.32
